createdAt,value
2023-03-06T00:00:35.724Z,30.00
2023-03-06T00:03:38.941Z,29.55
2023-03-06T00:06:43.578Z,29.73
2023-03-06T00:09:46.732Z,33.05
2023-03-06T00:12:51.919Z,28.95
2023-03-06T00:15:55.329Z,30.58
2023-03-06T00:18:58.528Z,31.30
2023-03-06T00:22:03.352Z,31.60
2023-03-06T00:25:08.408Z,27.00
2023-03-06T00:28:12.487Z,31.42
2023-03-06T00:31:16.139Z,28.95
2023-03-06T00:34:19.344Z,29.50
2023-03-06T00:37:25.652Z,28.13
2023-03-06T00:40:28.938Z,31.02
2023-03-06T00:43:32.118Z,28.98
2023-03-06T00:46:35.325Z,30.38
2023-03-06T00:49:39.028Z,34.00
2023-03-06T00:52:43.703Z,27.95
2023-03-06T00:55:47.161Z,28.30
2023-03-06T00:59:04.124Z,24.98
2023-03-06T01:02:08.227Z,28.98
2023-03-06T01:05:13.836Z,27.40
2023-03-06T01:08:16.983Z,29.48
2023-03-06T01:11:20.086Z,28.50
2023-03-06T01:14:24.867Z,27.75
2023-03-06T01:17:28.604Z,27.17
2023-03-06T01:20:31.927Z,25.48
2023-03-06T01:23:35.312Z,32.60
2023-03-06T01:26:38.452Z,29.65
2023-03-06T01:29:42.910Z,28.23
2023-03-06T01:32:48.089Z,26.10
2023-03-06T01:35:51.194Z,30.88
2023-03-06T01:38:54.398Z,27.33
2023-03-06T01:41:57.639Z,29.55
2023-03-06T01:45:07.414Z,26.08
2023-03-06T01:48:11.405Z,34.53
2023-03-06T01:51:15.240Z,30.50
2023-03-06T01:54:22.294Z,25.40
2023-03-06T01:57:30.824Z,28.20
2023-03-06T02:00:35.637Z,27.88
2023-03-06T02:03:40.685Z,29.25
2023-03-06T02:06:44.205Z,27.42
2023-03-06T02:09:47.527Z,27.10
2023-03-06T02:12:52.708Z,29.60
2023-03-06T02:15:57.638Z,28.85
2023-03-06T02:19:03.152Z,25.00
2023-03-06T02:22:07.129Z,24.92
2023-03-06T02:25:16.565Z,27.17
2023-03-06T02:28:24.018Z,32.88
2023-03-06T02:31:29.673Z,28.35
2023-03-06T02:34:51.638Z,28.52
2023-03-06T02:37:57.071Z,23.02
2023-03-06T02:41:02.636Z,28.08
2023-03-06T02:44:08.210Z,23.83
2023-03-06T02:47:11.804Z,25.92
2023-03-06T02:50:15.018Z,24.48
2023-03-06T02:53:21.006Z,26.17
2023-03-06T02:56:24.493Z,27.90
2023-03-06T02:59:29.382Z,25.73
2023-03-06T03:02:33.404Z,27.90
2023-03-06T03:05:36.946Z,27.95
2023-03-06T03:08:47.838Z,26.38
2023-03-06T03:11:51.042Z,28.30
2023-03-06T03:14:56.304Z,26.20
2023-03-06T03:17:59.454Z,28.20
2023-03-06T03:21:03.012Z,26.13
2023-03-06T03:24:06.670Z,23.23
2023-03-06T03:27:10.156Z,25.95
2023-03-06T03:30:15.451Z,30.00
2023-03-06T03:33:18.710Z,31.20
2023-03-06T03:36:22.421Z,28.15
2023-03-06T03:39:25.814Z,24.48
2023-03-06T03:42:29.052Z,26.30
2023-03-06T03:45:33.675Z,26.42
2023-03-06T03:48:36.864Z,29.58
2023-03-06T03:51:41.652Z,30.55
2023-03-06T03:54:45.113Z,31.75
2023-03-06T03:57:48.324Z,27.73
2023-03-06T04:00:53.442Z,30.77
2023-03-06T04:03:56.571Z,32.80
2023-03-06T04:07:00.570Z,29.75
2023-03-06T04:10:03.744Z,27.20
2023-03-06T04:13:09.955Z,31.08
2023-03-06T04:16:19.370Z,26.52
2023-03-06T04:19:22.691Z,29.00
2023-03-06T04:22:26.464Z,25.40
2023-03-06T04:25:29.734Z,33.63
2023-03-06T04:28:34.550Z,37.35
2023-03-06T04:34:24.286Z,32.95
2023-03-06T04:37:28.208Z,39.35
2023-03-06T04:40:34.333Z,35.10
2023-03-06T04:43:39.455Z,33.13
2023-03-06T04:46:42.710Z,32.88
2023-03-06T04:49:47.431Z,34.90
2023-03-06T04:52:50.974Z,32.80
2023-03-06T04:55:54.056Z,33.55
2023-03-06T04:58:57.358Z,34.15
2023-03-06T05:02:00.446Z,33.60
2023-03-06T05:05:06.005Z,40.67
2023-03-06T05:08:13.518Z,40.88
2023-03-06T05:11:16.801Z,31.00
2023-03-06T05:14:20.255Z,34.60
2023-03-06T05:17:23.778Z,40.15
2023-03-06T05:20:28.623Z,32.88
2023-03-06T05:23:34.856Z,31.05
2023-03-06T05:26:37.993Z,36.88
2023-03-06T05:29:41.195Z,32.95
2023-03-06T05:32:44.729Z,37.10
2023-03-06T05:35:50.249Z,40.33
2023-03-06T05:38:53.726Z,35.33
2023-03-06T05:41:56.873Z,38.13
2023-03-06T05:45:00.039Z,38.65
2023-03-06T05:48:03.265Z,36.47
2023-03-06T05:51:07.889Z,34.08
2023-03-06T05:54:11.066Z,39.38
2023-03-06T05:57:14.298Z,37.75
2023-03-06T06:00:19.569Z,44.95
2023-03-06T06:03:23.345Z,42.67
2023-03-06T06:06:28.252Z,41.85
2023-03-06T06:09:31.618Z,36.47
2023-03-06T06:12:34.926Z,43.40
2023-03-06T06:15:39.031Z,33.33
2023-03-06T06:18:42.505Z,35.88
2023-03-06T06:21:49.391Z,40.45
2023-03-06T06:24:52.570Z,40.95
2023-03-06T06:27:56.913Z,38.35
2023-03-06T06:31:00.525Z,38.15
2023-03-06T06:34:04.440Z,39.20
2023-03-06T06:37:08.893Z,32.80
2023-03-06T06:40:13.154Z,41.78
2023-03-06T06:43:16.302Z,37.45
2023-03-06T06:47:05.847Z,35.70
2023-03-06T06:49:43.508Z,37.63
2023-03-06T06:52:48.345Z,38.35
2023-03-06T06:56:05.856Z,34.38
2023-03-06T06:59:16.425Z,34.00
2023-03-06T07:02:20.571Z,38.42
2023-03-06T07:05:23.819Z,44.20
2023-03-06T07:08:27.050Z,37.72
2023-03-06T07:11:32.562Z,42.72
2023-03-06T07:14:35.741Z,42.00
2023-03-06T07:17:38.924Z,40.42
2023-03-06T07:20:42.316Z,39.47
2023-03-06T07:23:45.510Z,43.97
2023-03-06T07:26:50.181Z,35.85
2023-03-06T07:29:53.637Z,36.95
2023-03-06T07:32:57.926Z,33.63
2023-03-06T07:36:01.095Z,42.38
2023-03-06T07:39:04.634Z,36.72
2023-03-06T07:42:10.259Z,39.10
2023-03-06T07:45:22.559Z,32.83
2023-03-06T07:48:25.771Z,33.15
2023-03-06T07:51:29.108Z,29.52
2023-03-06T07:54:32.625Z,31.33
2023-03-06T07:57:37.348Z,38.72
2023-03-06T08:00:40.616Z,32.35
2023-03-06T08:03:45.032Z,32.33
2023-03-06T08:06:48.294Z,31.02
2023-03-06T08:09:52.122Z,33.75
2023-03-06T08:12:56.656Z,32.67
2023-03-06T08:16:00.769Z,27.77
2023-03-06T08:19:03.941Z,33.25
2023-03-06T08:22:07.788Z,29.02
2023-03-06T08:25:13.175Z,30.02
2023-03-06T08:28:17.700Z,27.48
2023-03-06T08:31:27.495Z,28.33
2023-03-06T08:34:31.762Z,29.65
2023-03-06T08:37:35.099Z,27.42
2023-03-06T08:40:38.314Z,27.13
2023-03-06T08:43:43.074Z,35.47
2023-03-06T08:46:46.313Z,29.70
2023-03-06T08:49:49.588Z,25.38
2023-03-06T08:52:52.710Z,23.65
2023-03-06T08:55:55.857Z,27.70
2023-03-06T08:59:02.771Z,34.53
2023-03-06T09:02:07.572Z,28.48
2023-03-06T09:05:11.453Z,23.60
2023-03-06T09:08:14.684Z,26.33
2023-03-06T09:11:17.880Z,27.23
2023-03-06T09:14:22.606Z,23.48
2023-03-06T09:17:26.562Z,24.10
2023-03-06T09:20:29.945Z,24.05
2023-03-06T09:23:35.942Z,27.75
2023-03-06T09:26:46.066Z,28.08
2023-03-06T09:29:51.771Z,29.80
2023-03-06T09:32:54.928Z,23.98
2023-03-06T09:35:58.533Z,26.38
2023-03-06T09:39:01.758Z,26.45
2023-03-06T09:42:08.375Z,25.30
2023-03-06T09:45:14.312Z,25.48
2023-03-06T09:48:21.643Z,29.40
2023-03-06T09:51:37.015Z,25.70
2023-03-06T09:54:46.052Z,27.23
2023-03-06T09:57:56.436Z,20.63
2023-03-06T10:01:05.689Z,24.63
2023-03-06T10:04:23.276Z,25.38
2023-03-06T10:07:34.399Z,29.75
2023-03-06T10:10:45.269Z,22.85
2023-03-06T10:13:51.522Z,27.20
2023-03-06T10:16:57.013Z,21.42
2023-03-06T10:20:00.239Z,24.75
2023-03-06T10:23:15.205Z,20.40
2023-03-06T10:26:24.037Z,21.02
2023-03-06T10:29:56.383Z,20.08
2023-03-06T10:34:29.640Z,24.27
2023-03-06T10:37:32.827Z,20.90
2023-03-06T10:40:42.383Z,17.58
2023-03-06T10:43:46.935Z,18.98
2023-03-06T10:46:52.535Z,19.88
2023-03-06T10:50:02.533Z,22.45
2023-03-06T10:53:08.370Z,20.25
2023-03-06T10:56:11.456Z,20.13
2023-03-06T10:59:17.120Z,21.75
2023-03-06T11:02:32.338Z,19.27
2023-03-06T11:05:36.945Z,19.10
2023-03-06T11:08:42.388Z,19.50
2023-03-06T11:11:45.693Z,16.98
2023-03-06T11:14:48.884Z,20.17
2023-03-06T11:17:55.190Z,19.77
2023-03-06T11:20:59.744Z,22.80
2023-03-06T11:24:06.869Z,18.73
2023-03-06T11:27:26.403Z,22.85
2023-03-06T11:30:38.638Z,17.23
2023-03-06T11:33:48.419Z,18.13
2023-03-06T11:36:56.146Z,22.75
2023-03-06T11:40:07.610Z,17.67
2023-03-06T11:43:23.278Z,17.67
2023-03-06T11:46:31.961Z,17.38
2023-03-06T11:49:42.383Z,19.45
2023-03-06T11:52:52.302Z,20.52
2023-03-06T11:56:03.443Z,16.13
2023-03-06T11:59:42.841Z,17.00
2023-03-06T12:03:17.816Z,15.48
2023-03-06T12:06:33.017Z,16.23
2023-03-06T12:09:47.234Z,17.20
2023-03-06T12:13:32.684Z,17.63
2023-03-06T12:17:14.356Z,18.13
2023-03-06T12:20:29.866Z,15.82
2023-03-06T12:23:51.662Z,15.43
2023-03-06T12:27:18.259Z,18.08
2023-03-06T12:30:44.428Z,17.95
2023-03-06T12:33:58.394Z,15.63
2023-03-06T12:37:10.679Z,15.82
2023-03-06T12:40:37.115Z,18.45
2023-03-06T12:44:16.318Z,15.05
2023-03-06T12:47:22.684Z,13.75
2023-03-06T12:50:27.903Z,17.95
2023-03-06T12:53:33.811Z,17.73
2023-03-06T12:56:36.950Z,16.52
2023-03-06T12:59:44.389Z,15.60
2023-03-06T13:03:13.828Z,18.00
2023-03-06T13:06:45.035Z,14.57
2023-03-06T13:10:08.901Z,15.50
2023-03-06T13:13:32.040Z,13.80
2023-03-06T13:16:36.817Z,15.98
2023-03-06T13:19:40.051Z,13.27
2023-03-06T13:22:44.890Z,18.08
2023-03-06T13:25:50.062Z,13.63
2023-03-06T13:28:54.442Z,15.02
2023-03-06T13:32:17.802Z,15.57
2023-03-06T13:35:50.153Z,13.13
2023-03-06T13:39:11.443Z,12.45
2023-03-06T13:42:27.602Z,16.27
2023-03-06T13:45:35.466Z,14.20
2023-03-06T13:48:45.540Z,15.23
2023-03-06T13:52:04.865Z,14.30
2023-03-06T13:55:20.493Z,16.55
2023-03-06T13:58:41.633Z,13.95
2023-03-06T14:01:57.803Z,14.73
2023-03-06T14:05:04.640Z,15.27
2023-03-06T14:08:11.104Z,15.73
2023-03-06T14:11:20.817Z,16.15
2023-03-06T14:14:35.748Z,11.07
2023-03-06T14:17:39.502Z,14.20
2023-03-06T14:20:45.969Z,15.20
2023-03-06T14:24:00.649Z,13.25
2023-03-06T14:27:04.632Z,15.75
2023-03-06T14:30:12.693Z,17.45
2023-03-06T14:36:35.289Z,18.52
2023-03-06T14:39:41.163Z,15.88
2023-03-06T14:42:44.391Z,14.43
2023-03-06T14:45:53.330Z,18.42
2023-03-06T14:49:00.068Z,17.55
2023-03-06T14:52:04.824Z,18.33
2023-03-06T14:55:12.878Z,20.02
2023-03-06T15:01:28.943Z,15.98
2023-03-06T15:04:39.904Z,17.70
2023-03-06T15:07:45.099Z,18.05
2023-03-06T15:10:58.265Z,21.30
2023-03-06T15:14:03.316Z,24.23
2023-03-06T15:17:16.739Z,18.85
2023-03-06T15:20:41.142Z,16.40
2023-03-06T15:23:47.914Z,20.10
2023-03-06T15:26:56.171Z,15.13
2023-03-06T15:30:12.315Z,15.10
2023-03-06T15:33:25.258Z,15.00
2023-03-06T15:36:30.848Z,16.00
2023-03-06T15:39:38.038Z,16.33
2023-03-06T15:42:43.295Z,15.55
2023-03-06T15:45:46.766Z,16.70
2023-03-06T15:48:54.496Z,15.15
2023-03-06T15:51:57.653Z,17.05
2023-03-06T15:55:03.203Z,18.08
2023-03-06T15:58:06.785Z,17.88
2023-03-06T16:01:16.898Z,19.90
2023-03-06T16:04:20.983Z,23.20
2023-03-06T16:07:24.370Z,17.05
2023-03-06T16:10:31.283Z,21.63
2023-03-06T16:13:34.766Z,20.30
2023-03-06T16:16:39.694Z,20.20
2023-03-06T16:19:43.369Z,26.65
2023-03-06T16:22:47.525Z,27.35
2023-03-06T16:25:52.156Z,23.80
2023-03-06T16:28:55.392Z,23.73
2023-03-06T16:34:24.573Z,23.58
2023-03-06T16:37:27.863Z,26.42
2023-03-06T16:40:37.472Z,22.48
2023-03-06T16:43:40.568Z,23.67
2023-03-06T16:46:46.900Z,23.55
2023-03-06T16:49:55.811Z,25.00
2023-03-06T16:52:59.928Z,23.13
2023-03-06T16:56:03.098Z,26.67
2023-03-06T16:59:06.658Z,23.20
2023-03-06T17:02:10.751Z,21.75
2023-03-06T17:05:15.874Z,27.38
2023-03-06T17:08:19.188Z,28.52
2023-03-06T17:11:22.363Z,24.75
2023-03-06T17:14:25.567Z,27.08
2023-03-06T17:17:29.407Z,37.38
2023-03-06T17:20:33.930Z,25.70
2023-03-06T17:23:38.199Z,26.08
2023-03-06T17:26:41.474Z,27.50
2023-03-06T17:29:46.131Z,25.00
2023-03-06T17:32:49.313Z,26.58
2023-03-06T17:36:00.239Z,24.20
2023-03-06T17:39:04.263Z,27.05
2023-03-06T17:42:08.711Z,27.50
2023-03-06T17:45:12.648Z,27.50
2023-03-06T17:48:15.869Z,30.00
2023-03-06T17:51:20.559Z,29.75
2023-03-06T17:54:26.015Z,25.92
2023-03-06T17:57:29.173Z,24.00
2023-03-06T18:00:32.355Z,23.55
2023-03-06T18:03:38.111Z,24.90
2023-03-06T18:06:43.393Z,27.38
2023-03-06T18:09:46.610Z,21.42
2023-03-06T18:12:49.780Z,23.80
2023-03-06T18:15:53.051Z,22.52
2023-03-06T18:18:57.641Z,27.73
2023-03-06T18:22:02.351Z,26.23
2023-03-06T18:25:09.190Z,24.38
2023-03-06T18:28:12.545Z,23.48
2023-03-06T18:31:17.095Z,27.42
2023-03-06T18:34:20.354Z,25.80
2023-03-06T18:37:24.919Z,25.73
2023-03-06T18:40:28.209Z,28.05
2023-03-06T18:43:31.510Z,26.17
2023-03-06T18:46:37.564Z,25.48
2023-03-06T18:49:42.561Z,28.67
2023-03-06T18:52:48.505Z,26.85
2023-03-06T18:55:53.568Z,27.40
2023-03-06T18:58:56.913Z,23.83
2023-03-06T19:02:00.364Z,27.52
2023-03-06T19:05:03.593Z,23.75
2023-03-06T19:08:08.195Z,25.88
2023-03-06T19:11:13.680Z,26.25
2023-03-06T19:14:17.264Z,24.10
2023-03-06T19:17:20.407Z,24.30
2023-03-06T19:20:24.298Z,26.50
2023-03-06T19:23:28.843Z,30.80
2023-03-06T19:26:32.496Z,27.30
2023-03-06T19:29:35.608Z,22.23
2023-03-06T19:32:38.925Z,26.58
2023-03-06T19:35:42.354Z,29.50
2023-03-06T19:38:50.274Z,28.95
2023-03-06T19:41:53.594Z,26.33
2023-03-06T19:44:56.778Z,26.77
2023-03-06T19:48:00.939Z,30.38
2023-03-06T19:51:05.168Z,34.47
2023-03-06T19:54:11.751Z,30.65
2023-03-06T19:57:15.172Z,33.60
2023-03-06T20:00:19.647Z,34.53
2023-03-06T20:03:22.898Z,31.13
2023-03-06T20:06:33.521Z,30.73
2023-03-06T20:09:38.572Z,30.67
2023-03-06T20:12:41.746Z,31.35
2023-03-06T20:15:44.909Z,31.48
2023-03-06T20:18:48.212Z,32.13
2023-03-06T20:21:51.465Z,30.27
2023-03-06T20:24:56.017Z,33.20
2023-03-06T20:27:59.281Z,28.80
2023-03-06T20:31:07.652Z,31.75
2023-03-06T20:34:11.900Z,30.55
2023-03-06T20:37:15.223Z,28.48
2023-03-06T20:40:20.098Z,25.88
2023-03-06T20:43:26.556Z,35.50
2023-03-06T20:46:30.217Z,31.02
2023-03-06T20:49:33.802Z,32.30
2023-03-06T20:52:36.946Z,27.50
2023-03-06T20:55:44.232Z,29.80
2023-03-06T20:58:47.411Z,26.17
2023-03-06T21:01:50.815Z,28.00
2023-03-06T21:04:54.059Z,28.85
2023-03-06T21:07:57.214Z,33.03
2023-03-06T21:11:01.731Z,26.58
2023-03-06T21:14:05.395Z,28.60
2023-03-06T21:17:08.651Z,25.95
2023-03-06T21:20:12.668Z,26.52
2023-03-06T21:23:15.970Z,28.85
2023-03-06T21:26:22.238Z,25.88
2023-03-06T21:29:25.488Z,28.35
2023-03-06T21:32:29.086Z,28.33
2023-03-06T21:35:32.287Z,29.95
2023-03-06T21:38:35.835Z,27.15
2023-03-06T21:41:41.755Z,25.67
2023-03-06T21:44:45.219Z,25.67
2023-03-06T21:47:48.922Z,28.10
2023-03-06T21:50:52.179Z,28.83
2023-03-06T21:53:55.852Z,27.17
2023-03-06T21:57:00.340Z,28.00
2023-03-06T22:00:04.763Z,26.67
2023-03-06T22:03:13.524Z,25.65
2023-03-06T22:06:18.799Z,24.45
2023-03-06T22:09:22.132Z,27.40
2023-03-06T22:12:27.134Z,29.50
2023-03-06T22:15:30.254Z,28.10
2023-03-06T22:18:34.360Z,26.83
2023-03-06T22:21:38.457Z,28.95
2023-03-06T22:24:41.657Z,26.45
2023-03-06T22:27:46.248Z,29.98
2023-03-06T22:34:23.827Z,27.77
2023-03-06T22:37:27.023Z,26.95
2023-03-06T22:40:30.195Z,25.17
2023-03-06T22:43:34.967Z,24.90
2023-03-06T22:46:39.410Z,24.73
2023-03-06T22:49:43.884Z,26.08
2023-03-06T22:52:47.204Z,25.40
2023-03-06T22:55:50.449Z,25.52
2023-03-06T22:58:53.598Z,23.95
2023-03-06T23:01:56.700Z,21.75
2023-03-06T23:05:01.199Z,22.85
2023-03-06T23:08:04.324Z,27.50
2023-03-06T23:11:10.132Z,25.70
2023-03-06T23:14:32.687Z,25.98
2023-03-06T23:17:55.100Z,26.55
2023-03-06T23:21:19.812Z,24.25
2023-03-06T23:24:41.490Z,27.00
2023-03-06T23:27:44.671Z,25.90
2023-03-06T23:30:48.180Z,26.40
2023-03-06T23:33:51.481Z,27.80
2023-03-06T23:36:56.231Z,25.50
2023-03-06T23:39:59.509Z,25.27
2023-03-06T23:43:03.691Z,26.77
2023-03-06T23:46:08.141Z,25.90
2023-03-06T23:49:11.367Z,25.83
2023-03-06T23:52:15.851Z,22.05
2023-03-06T23:55:19.190Z,25.67
2023-03-06T23:58:22.418Z,20.85
